createdAt,value
2016-06-18T00:00:31.630Z,12.32
2016-06-18T00:01:31.632Z,12.21
2016-06-18T00:02:31.637Z,12.2
2016-06-18T00:03:31.639Z,12.17
2016-06-18T00:04:31.674Z,12.15
2016-06-18T00:05:31.646Z,12.08
2016-06-18T00:06:31.634Z,12.14
2016-06-18T00:07:31.622Z,12.02
2016-06-18T00:08:31.641Z,12.08
2016-06-18T00:09:31.660Z,12.12
2016-06-18T00:10:31.039Z,11.99
2016-06-18T00:11:31.637Z,12.03
2016-06-18T00:12:31.640Z,12.03
2016-06-18T00:13:31.644Z,12.03
2016-06-18T00:14:31.647Z,11.99
2016-06-18T00:15:31.650Z,11.95
2016-06-18T00:16:31.637Z,11.93
2016-06-18T00:17:31.641Z,11.8
2016-06-18T00:18:31.644Z,11.81
2016-06-18T00:19:31.648Z,11.81
2016-06-18T00:20:31.651Z,11.81
2016-06-18T00:21:31.655Z,11.76
2016-06-18T00:22:31.643Z,11.76
2016-06-18T00:23:31.646Z,11.78
2016-06-18T00:24:31.666Z,11.63
2016-06-18T00:25:31.653Z,11.63
2016-06-18T00:26:31.656Z,11.6
2016-06-18T00:27:31.645Z,11.62
2016-06-18T00:28:31.648Z,11.49
2016-06-18T00:29:31.652Z,11.55
2016-06-18T00:30:31.655Z,11.51
2016-06-18T00:31:31.642Z,11.52
2016-06-18T00:32:31.663Z,11.56
2016-06-18T00:33:31.649Z,11.49
2016-06-18T00:34:31.653Z,11.52
2016-06-18T00:35:31.047Z,11.45
2016-06-18T00:36:31.660Z,11.45
2016-06-18T00:37:31.664Z,11.38
2016-06-18T00:38:31.667Z,11.33
2016-06-18T00:39:31.670Z,11.26
2016-06-18T00:40:31.658Z,11.27
2016-06-18T00:41:31.052Z,11.27
2016-06-18T00:42:31.650Z,11.19
2016-06-18T00:43:31.654Z,11.2
2016-06-18T00:44:31.657Z,11.08
2016-06-18T00:45:31.675Z,11.12
2016-06-18T00:46:31.663Z,10.98
2016-06-18T00:47:31.667Z,11.04
2016-06-18T00:48:31.654Z,10.92
2016-06-18T00:49:31.674Z,10.98
2016-06-18T00:50:31.661Z,10.94
2016-06-18T00:51:31.664Z,10.92
2016-06-18T00:52:31.669Z,10.89
2016-06-18T00:53:31.063Z,10.86
2016-06-18T00:54:31.691Z,10.82
2016-06-18T00:55:31.648Z,10.82
2016-06-18T00:56:31.682Z,10.83
2016-06-18T00:57:31.671Z,10.86
2016-06-18T00:58:31.080Z,10.83
2016-06-18T00:59:31.678Z,10.89
2016-06-18T01:00:31.681Z,10.79
2016-06-18T01:01:31.669Z,10.76
2016-06-18T01:02:31.063Z,10.82
2016-06-18T01:03:31.675Z,10.79
2016-06-18T01:04:31.695Z,10.82
2016-06-18T01:05:31.682Z,10.87
2016-06-18T01:06:31.670Z,10.76
2016-06-18T01:07:31.720Z,10.83
2016-06-18T01:08:31.677Z,10.86
2016-06-18T01:09:31.680Z,10.82
2016-06-18T01:10:31.683Z,10.8
2016-06-18T01:11:31.687Z,10.76
2016-06-18T01:12:31.082Z,10.71
2016-06-18T01:13:31.710Z,10.75
2016-06-18T01:14:31.683Z,10.71
2016-06-18T01:15:31.686Z,10.71
2016-06-18T01:16:31.689Z,10.67
2016-06-18T01:17:31.833Z,10.65
2016-06-18T01:18:31.680Z,10.64
2016-06-18T01:19:31.668Z,10.61
2016-06-18T01:20:31.687Z,10.58
2016-06-18T01:21:31.691Z,10.48
2016-06-18T01:22:31.694Z,10.53
2016-06-18T01:23:31.697Z,10.61
2016-06-18T01:24:31.702Z,10.58
2016-06-18T01:25:31.688Z,10.59
2016-06-18T01:26:31.099Z,10.57
2016-06-18T01:27:31.696Z,10.45
2016-06-18T01:28:31.699Z,10.46
2016-06-18T01:29:31.687Z,10.46
2016-06-18T01:30:31.691Z,10.36
2016-06-18T01:31:31.695Z,10.38
2016-06-18T01:32:31.698Z,10.34
2016-06-18T01:33:31.686Z,10.34
2016-06-18T01:34:31.689Z,10.39
2016-06-18T01:35:31.692Z,10.41
2016-06-18T01:36:31.695Z,10.33
2016-06-18T01:37:31.699Z,10.39
2016-06-18T01:38:31.688Z,10.33
2016-06-18T01:39:31.691Z,10.25
2016-06-18T01:40:31.695Z,10.25
2016-06-18T01:41:31.698Z,10.31
2016-06-18T01:42:31.077Z,10.25
2016-06-18T01:43:31.705Z,10.23
2016-06-18T01:44:31.692Z,10.12
2016-06-18T01:45:31.696Z,10.15
2016-06-18T01:46:31.700Z,10.21
2016-06-18T01:47:31.703Z,10.21
2016-06-18T01:48:31.722Z,10.13
2016-06-18T01:49:31.694Z,10.15
2016-06-18T01:50:31.714Z,10.15
2016-06-18T01:51:31.732Z,10.23
2016-06-18T01:52:31.689Z,10.2
2016-06-18T01:53:31.708Z,10.21
2016-06-18T01:54:31.136Z,10.17
2016-06-18T01:55:31.705Z,10.12
2016-06-18T01:56:31.711Z,10.1
2016-06-18T01:57:31.718Z,10.13
2016-06-18T01:58:31.725Z,10.07
2016-06-18T01:59:31.714Z,10.15
2016-06-18T02:00:31.718Z,10.09
2016-06-18T02:01:31.739Z,10.06
2016-06-18T02:02:31.728Z,10.06
2016-06-18T02:03:31.716Z,9.94
2016-06-18T02:04:31.736Z,9.94
2016-06-18T02:05:31.724Z,9.87
2016-06-18T02:06:31.728Z,9.94
2016-06-18T02:07:31.732Z,9.9
2016-06-18T02:08:31.736Z,9.97
2016-06-18T02:09:31.725Z,9.88
2016-06-18T02:10:31.728Z,9.85
2016-06-18T02:11:31.716Z,9.94
2016-06-18T02:12:31.736Z,9.95
2016-06-18T02:13:31.724Z,9.92
2016-06-18T02:14:31.727Z,9.97
2016-06-18T02:15:31.122Z,9.85
2016-06-18T02:16:31.734Z,9.76
2016-06-18T02:17:31.738Z,9.77
2016-06-18T02:18:31.147Z,9.8
2016-06-18T02:19:31.744Z,9.76
2016-06-18T02:20:31.733Z,9.76
2016-06-18T02:21:31.126Z,9.73
2016-06-18T02:22:31.755Z,9.67
2016-06-18T02:23:31.743Z,9.67
2016-06-18T02:24:31.747Z,9.67
2016-06-18T02:25:31.750Z,9.64
2016-06-18T02:26:31.738Z,9.63
2016-06-18T02:27:31.741Z,9.58
2016-06-18T02:28:31.744Z,9.62
2016-06-18T02:29:31.748Z,9.59
2016-06-18T02:30:31.736Z,9.52
2016-06-18T02:31:31.739Z,9.44
2016-06-18T02:32:31.743Z,9.49
2016-06-18T02:33:31.746Z,9.54
2016-06-18T02:34:31.749Z,9.42
2016-06-18T02:35:31.738Z,9.4
2016-06-18T02:36:31.757Z,9.47
2016-06-18T02:37:31.744Z,9.47
2016-06-18T02:38:31.732Z,9.51
2016-06-18T02:39:31.752Z,9.45
2016-06-18T02:40:31.740Z,9.45
2016-06-18T02:41:31.133Z,9.42
2016-06-18T02:42:31.746Z,9.36
2016-06-18T02:43:31.749Z,9.34
2016-06-18T02:44:31.753Z,9.34
2016-06-18T02:45:31.741Z,9.3
2016-06-18T02:46:31.759Z,9.37
2016-06-18T02:47:31.747Z,9.34
2016-06-18T02:48:31.767Z,9.36
2016-06-18T02:49:31.740Z,9.37
2016-06-18T02:50:31.742Z,9.36
2016-06-18T02:51:31.746Z,9.36
2016-06-18T02:52:31.765Z,9.3
2016-06-18T02:53:31.753Z,9.22
2016-06-18T02:54:31.740Z,9.18
2016-06-18T02:55:31.760Z,9.24
2016-06-18T02:56:31.138Z,9.27
2016-06-18T02:57:31.751Z,9.16
2016-06-18T02:58:31.755Z,9.21
2016-06-18T02:59:31.758Z,9.21
2016-06-18T03:00:31.746Z,9.05
2016-06-18T03:01:31.750Z,9.19
2016-06-18T03:02:31.753Z,9.09
2016-06-18T03:03:31.741Z,9.12
2016-06-18T03:04:31.760Z,9.11
2016-06-18T03:05:31.747Z,9.15
2016-06-18T03:06:31.767Z,9.03
2016-06-18T03:07:31.755Z,9.03
2016-06-18T03:08:31.758Z,9
2016-06-18T03:09:31.761Z,8.99
2016-06-18T03:10:31.156Z,9.05
2016-06-18T03:11:31.752Z,9
2016-06-18T03:12:31.756Z,9.02
2016-06-18T03:13:31.759Z,9.02
2016-06-18T03:14:31.747Z,9
2016-06-18T03:15:31.751Z,9.03
2016-06-18T03:16:31.786Z,9.03
2016-06-18T03:17:31.758Z,9.08
2016-06-18T03:18:31.746Z,9.08
2016-06-18T03:19:31.749Z,9
2016-06-18T03:20:31.752Z,9
2016-06-18T03:21:31.756Z,9.08
2016-06-18T03:22:31.760Z,8.97
2016-06-18T03:23:31.762Z,9
2016-06-18T03:24:31.750Z,8.96
2016-06-18T03:25:31.754Z,8.93
2016-06-18T03:26:31.773Z,8.93
2016-06-18T03:27:31.760Z,8.96
2016-06-18T03:28:31.764Z,8.9
2016-06-18T03:29:31.752Z,9.02
2016-06-18T03:30:31.756Z,8.95
2016-06-18T03:31:31.760Z,9.02
2016-06-18T03:32:31.152Z,9
2016-06-18T03:33:31.750Z,8.97
2016-06-18T03:34:31.754Z,9.03
2016-06-18T03:35:31.758Z,9.05
2016-06-18T03:36:31.760Z,9.03
2016-06-18T03:37:31.764Z,8.99
2016-06-18T03:38:31.159Z,9.09
2016-06-18T03:39:31.771Z,8.97
2016-06-18T03:40:31.760Z,9.03
2016-06-18T03:41:31.763Z,9.09
2016-06-18T03:42:31.156Z,9.08
2016-06-18T03:43:31.770Z,9.13
2016-06-18T03:44:31.758Z,9.03
2016-06-18T03:45:31.777Z,9.09
2016-06-18T03:46:31.764Z,9.12
2016-06-18T03:47:31.752Z,9.26
2016-06-18T03:48:31.771Z,9.16
2016-06-18T03:49:30.541Z,9.15
2016-06-18T03:50:32.340Z,9.22
2016-06-18T03:51:31.188Z,9.31
2016-06-18T03:52:31.769Z,9.49
2016-06-18T03:53:31.773Z,9.76
2016-06-18T03:54:31.776Z,10.17
2016-06-18T03:55:31.764Z,10.57
2016-06-18T03:56:31.768Z,10.75
2016-06-18T03:57:31.771Z,11.07
2016-06-18T03:58:31.790Z,11.26
2016-06-18T03:59:31.762Z,11.58
2016-06-18T04:00:31.172Z,11.77
2016-06-18T04:01:31.816Z,11.96
2016-06-18T04:02:31.773Z,12.23
2016-06-18T04:03:31.792Z,12.35
2016-06-18T04:04:31.780Z,12.57
2016-06-18T04:05:31.783Z,12.86
2016-06-18T04:06:31.770Z,13.13
2016-06-18T04:07:31.774Z,13.37
2016-06-18T04:08:31.778Z,13.7
2016-06-18T04:09:31.781Z,14.05
2016-06-18T04:10:31.786Z,14.38
2016-06-18T04:11:31.796Z,14.82
2016-06-18T04:12:31.791Z,15.07
2016-06-18T04:13:31.207Z,15.32
2016-06-18T04:14:31.809Z,15.7
2016-06-18T04:15:31.818Z,16.12
2016-06-18T04:16:31.808Z,16.5
2016-06-18T04:17:31.830Z,17.1
2016-06-18T04:18:31.835Z,17.42
2016-06-18T04:19:31.825Z,17.9
2016-06-18T04:20:31.830Z,18.13
2016-06-18T04:21:31.835Z,18.33
2016-06-18T04:22:31.823Z,18.41
2016-06-18T04:23:31.219Z,18.63
2016-06-18T04:24:31.847Z,18.85
2016-06-18T04:25:31.836Z,19.26
2016-06-18T04:26:31.840Z,19.49
2016-06-18T04:27:31.845Z,19.85
2016-06-18T04:28:31.848Z,20.22
2016-06-18T04:29:31.852Z,20.6
2016-06-18T04:30:31.871Z,20.96
2016-06-18T04:31:31.843Z,21.23
2016-06-18T04:32:31.862Z,21.54
2016-06-18T04:33:31.866Z,21.78
2016-06-18T04:34:31.869Z,22.07
2016-06-18T04:35:31.857Z,22.36
2016-06-18T04:36:31.861Z,22.51
2016-06-18T04:37:31.863Z,22.91
2016-06-18T04:38:31.898Z,23.14
2016-06-18T04:39:31.871Z,23.28
2016-06-18T04:40:31.890Z,23.39
2016-06-18T04:41:31.877Z,23.52
2016-06-18T04:42:31.897Z,23.79
2016-06-18T04:43:31.884Z,24.11
2016-06-18T04:44:31.904Z,24.4
2016-06-18T04:45:31.908Z,24.55
2016-06-18T04:46:31.895Z,24.82
2016-06-18T04:47:31.914Z,24.93
2016-06-18T04:48:31.918Z,25.07
2016-06-18T04:49:31.905Z,25.12
2016-06-18T04:50:31.925Z,25.14
2016-06-18T04:51:31.928Z,25.09
2016-06-18T04:52:31.916Z,25.22
2016-06-18T04:53:31.935Z,25.36
2016-06-18T04:54:31.938Z,25.49
2016-06-18T04:55:31.942Z,25.67
2016-06-18T04:56:31.929Z,25.89
2016-06-18T04:57:31.949Z,26.26
2016-06-18T04:58:31.952Z,26.64
2016-06-18T04:59:31.956Z,26.85
2016-06-18T05:00:31.959Z,27.16
2016-06-18T05:01:31.977Z,27.4
2016-06-18T05:02:31.966Z,27.61
2016-06-18T05:03:31.970Z,27.79
2016-06-18T05:04:31.973Z,27.79
2016-06-18T05:05:31.992Z,27.48
2016-06-18T05:06:31.995Z,27.58
2016-06-18T05:07:31.983Z,27.91
2016-06-18T05:08:32.002Z,28.3
2016-06-18T05:09:31.397Z,28.57
2016-06-18T05:10:32.008Z,28.94
2016-06-18T05:11:32.028Z,29.28
2016-06-18T05:12:32.032Z,29.39
2016-06-18T05:13:32.020Z,29.9
2016-06-18T05:14:32.022Z,30.17
2016-06-18T05:15:32.026Z,30.71
2016-06-18T05:16:32.045Z,31.15
2016-06-18T05:17:32.049Z,31.47
2016-06-18T05:18:32.037Z,31.63
2016-06-18T05:19:32.055Z,31.5
2016-06-18T05:20:32.059Z,31.57
2016-06-18T05:21:32.078Z,31.63
2016-06-18T05:22:32.081Z,31.87
2016-06-18T05:23:32.085Z,31.97
2016-06-18T05:24:32.089Z,31.67
2016-06-18T05:25:32.091Z,31.14
2016-06-18T05:26:32.095Z,30.49
2016-06-18T05:27:32.099Z,29.94
2016-06-18T05:28:32.102Z,29.59
2016-06-18T05:29:32.137Z,29.73
2016-06-18T05:30:32.125Z,30.05
2016-06-18T05:31:32.128Z,30.46
2016-06-18T05:32:32.132Z,31
2016-06-18T05:33:31.542Z,31.35
2016-06-18T05:34:32.138Z,31.63
2016-06-18T05:35:32.158Z,31.81
2016-06-18T05:36:32.162Z,32.17
2016-06-18T05:37:32.165Z,32.34
2016-06-18T05:38:32.168Z,32.51
2016-06-18T05:39:32.187Z,32.66
2016-06-18T05:40:32.191Z,32.94
2016-06-18T05:41:32.194Z,33.47
2016-06-18T05:42:32.198Z,33.87
2016-06-18T05:43:32.217Z,34.35
2016-06-18T05:44:32.220Z,34.73
2016-06-18T05:45:32.208Z,34.6
2016-06-18T05:46:32.227Z,34.69
2016-06-18T05:47:32.247Z,34.79
2016-06-18T05:48:31.640Z,35.05
2016-06-18T05:49:32.254Z,35.41
2016-06-18T05:50:32.257Z,35.76
2016-06-18T05:51:32.261Z,36.17
2016-06-18T05:52:32.279Z,36.5
2016-06-18T05:53:32.282Z,36.82
2016-06-18T05:54:32.286Z,37.16
2016-06-18T05:55:31.680Z,37.43
2016-06-18T05:56:32.293Z,37.9
2016-06-18T05:57:32.313Z,38.38
2016-06-18T05:58:31.706Z,38.79
2016-06-18T05:59:32.334Z,39.33
2016-06-18T06:00:32.323Z,39.89
2016-06-18T06:01:32.341Z,40.26
2016-06-18T06:02:32.345Z,40.44
2016-06-18T06:03:32.348Z,40.48
2016-06-18T06:04:32.367Z,40.61
2016-06-18T06:05:32.371Z,40.64
2016-06-18T06:06:32.375Z,40.34
2016-06-18T06:07:31.769Z,39.73
2016-06-18T06:08:32.397Z,38.85
2016-06-18T06:09:31.791Z,37.64
2016-06-18T06:10:31.810Z,36.99
2016-06-18T06:11:32.423Z,36.47
2016-06-18T06:12:31.801Z,36.2
2016-06-18T06:13:32.414Z,35.84
2016-06-18T06:14:32.449Z,35.84
2016-06-18T06:15:32.436Z,36.01
2016-06-18T06:16:32.456Z,36.03
2016-06-18T06:17:32.476Z,36.03
2016-06-18T06:18:32.479Z,36.5
2016-06-18T06:19:32.482Z,36.67
2016-06-18T06:20:32.486Z,37.21
2016-06-18T06:21:32.504Z,37.48
2016-06-18T06:22:32.492Z,37.41
2016-06-18T06:23:32.527Z,37.16
2016-06-18T06:24:31.920Z,36.75
2016-06-18T06:25:31.925Z,36.53
2016-06-18T06:26:32.522Z,36.22
2016-06-18T06:27:32.542Z,35.63
2016-06-18T06:28:32.547Z,34.79
2016-06-18T06:29:32.565Z,33.91
2016-06-18T06:30:32.570Z,33.2
2016-06-18T06:31:32.590Z,32.46
2016-06-18T06:32:32.594Z,31.64
2016-06-18T06:33:31.989Z,30.95
2016-06-18T06:34:32.601Z,30.48
2016-06-18T06:35:32.621Z,29.99
2016-06-18T06:36:32.625Z,30.18
2016-06-18T06:37:32.643Z,30.96
2016-06-18T06:38:32.646Z,32.26
2016-06-18T06:39:32.650Z,33.67
2016-06-18T06:40:32.639Z,35.12
2016-06-18T06:41:32.658Z,36.43
2016-06-18T06:42:32.676Z,37.67
2016-06-18T06:43:32.680Z,38.6
2016-06-18T06:44:32.683Z,39.11
2016-06-18T06:45:32.078Z,39.66
2016-06-18T06:46:32.707Z,40.05
2016-06-18T06:47:32.710Z,40.1
2016-06-18T06:48:32.713Z,39.57
2016-06-18T06:49:32.717Z,39.32
2016-06-18T06:50:32.767Z,39.61
2016-06-18T06:51:32.755Z,40.08
2016-06-18T06:52:32.743Z,40.9
2016-06-18T06:53:32.761Z,41.9
2016-06-18T06:54:32.780Z,42.78
2016-06-18T06:55:32.784Z,43.54
2016-06-18T06:56:32.803Z,44.14
2016-06-18T06:57:32.807Z,44.57
2016-06-18T06:58:32.826Z,44.92
2016-06-18T06:59:32.829Z,44.95
2016-06-18T07:00:32.833Z,44.75
2016-06-18T07:01:32.837Z,44.83
2016-06-18T07:02:32.246Z,45.04
2016-06-18T07:03:32.859Z,45.23
2016-06-18T07:04:32.877Z,45.76
2016-06-18T07:05:32.881Z,46.01
2016-06-18T07:06:32.885Z,46.44
2016-06-18T07:07:32.904Z,46.94
2016-06-18T07:08:32.908Z,47.35
2016-06-18T07:09:32.926Z,47.86
2016-06-18T07:10:32.929Z,48.42
2016-06-18T07:11:32.949Z,48.73
2016-06-18T07:12:32.968Z,48.82
2016-06-18T07:13:32.956Z,49.17
2016-06-18T07:14:32.975Z,49.36
2016-06-18T07:15:32.993Z,49.57
2016-06-18T07:16:33.013Z,49.71
2016-06-18T07:17:33.063Z,49.95
2016-06-18T07:18:33.020Z,50.31
2016-06-18T07:19:32.430Z,50.52
2016-06-18T07:20:33.043Z,50.63
2016-06-18T07:21:33.061Z,50.25
2016-06-18T07:22:33.081Z,49.41
2016-06-18T07:23:33.084Z,48.74
2016-06-18T07:24:33.088Z,48.2
2016-06-18T07:25:33.106Z,47.44
2016-06-18T07:26:33.110Z,46.46
2016-06-18T07:27:33.114Z,45.33
2016-06-18T07:28:33.132Z,44.38
2016-06-18T07:29:33.151Z,43.41
2016-06-18T07:30:33.154Z,42.27
2016-06-18T07:31:33.158Z,41.2
2016-06-18T07:32:33.178Z,40.14
2016-06-18T07:33:33.197Z,38.92
2016-06-18T07:34:33.201Z,37.92
2016-06-18T07:35:33.204Z,37.07
2016-06-18T07:36:33.223Z,36.43
2016-06-18T07:37:33.242Z,35.82
2016-06-18T07:38:33.245Z,35.22
2016-06-18T07:39:33.265Z,34.71
2016-06-18T07:40:33.268Z,34.21
2016-06-18T07:41:33.272Z,34.03
2016-06-18T07:42:33.275Z,33.75
2016-06-18T07:43:33.278Z,33.67
2016-06-18T07:44:32.672Z,33.67
2016-06-18T07:45:33.300Z,34
2016-06-18T07:46:32.695Z,34.85
2016-06-18T07:47:33.339Z,36.11
2016-06-18T07:48:33.342Z,37.31
2016-06-18T07:49:33.345Z,38.54
2016-06-18T07:50:33.365Z,39.27
2016-06-18T07:51:33.369Z,39.79
2016-06-18T07:52:33.371Z,40.13
2016-06-18T07:53:33.375Z,40.43
2016-06-18T07:54:33.394Z,40.69
2016-06-18T07:55:33.398Z,41.27
2016-06-18T07:56:33.401Z,41.64
2016-06-18T07:57:33.420Z,42
2016-06-18T07:58:33.440Z,42
2016-06-18T07:59:33.443Z,42.25
2016-06-18T08:00:33.446Z,42.75
2016-06-18T08:01:33.466Z,43.39
2016-06-18T08:02:33.469Z,44.18
2016-06-18T08:03:33.473Z,44.59
2016-06-18T08:04:33.507Z,44.84
2016-06-18T08:05:33.511Z,45.05
2016-06-18T08:06:33.514Z,44.79
2016-06-18T08:07:33.517Z,44.55
2016-06-18T08:08:33.521Z,44.57
2016-06-18T08:09:33.555Z,44.6
2016-06-18T08:10:33.543Z,44.98
2016-06-18T08:11:33.546Z,45.76
2016-06-18T08:12:32.363Z,46.43
2016-06-18T08:13:33.586Z,47.45
2016-06-18T08:14:33.588Z,48.32
2016-06-18T08:15:32.999Z,49.31
2016-06-18T08:16:33.610Z,50.16
2016-06-18T08:17:33.614Z,50.92
2016-06-18T08:18:33.664Z,51.12
2016-06-18T08:19:33.638Z,51.3
2016-06-18T08:20:33.641Z,51.36
2016-06-18T08:21:33.660Z,51.46
2016-06-18T08:22:33.663Z,51.31
2016-06-18T08:23:33.088Z,51.01
2016-06-18T08:24:33.091Z,50.44
2016-06-18T08:25:33.705Z,49.86
2016-06-18T08:26:33.724Z,49.41
2016-06-18T08:27:33.727Z,48.89
2016-06-18T08:28:33.746Z,48.33
2016-06-18T08:29:33.765Z,47.79
2016-06-18T08:30:33.769Z,47
2016-06-18T08:31:33.773Z,46.15
2016-06-18T08:32:33.776Z,45.48
2016-06-18T08:33:33.795Z,44.86
2016-06-18T08:34:33.798Z,44.5
2016-06-18T08:35:33.817Z,44.03
2016-06-18T08:36:33.821Z,43.84
2016-06-18T08:37:33.840Z,43.35
2016-06-18T08:38:33.844Z,43.02
2016-06-18T08:39:33.847Z,42.66
2016-06-18T08:40:33.866Z,42.25
2016-06-18T08:41:33.869Z,41.65
2016-06-18T08:42:33.888Z,41.07
2016-06-18T08:43:33.909Z,40.4
2016-06-18T08:47:10.187Z,38.62
2016-06-18T08:47:22.062Z,38.53
2016-06-18T08:47:33.328Z,37.53
2016-06-18T08:48:33.366Z,37.37
2016-06-18T08:49:33.357Z,37.48
2016-06-18T08:50:33.362Z,37.53
2016-06-18T08:51:33.367Z,37.53
2016-06-18T08:52:33.403Z,37.44
2016-06-18T08:53:33.392Z,37.34
2016-06-18T08:54:33.411Z,37.37
2016-06-18T08:55:32.197Z,37.48
2016-06-18T08:56:32.810Z,37.71
2016-06-18T08:57:33.439Z,37.73
2016-06-18T08:58:33.458Z,37.88
2016-06-18T08:59:33.462Z,37.86
2016-06-18T09:00:32.856Z,37.8
2016-06-18T09:01:33.455Z,37.66
2016-06-18T09:02:33.474Z,37.5
2016-06-18T09:03:33.492Z,37.19
2016-06-18T09:04:33.496Z,36.99
2016-06-18T09:05:32.344Z,36.92
2016-06-18T09:06:33.518Z,36.87
2016-06-18T09:07:33.521Z,36.6
2016-06-18T09:08:33.541Z,36.48
2016-06-18T09:09:32.936Z,36.26
2016-06-18T09:10:33.548Z,35.98
2016-06-18T09:11:33.551Z,35.74
2016-06-18T09:12:32.946Z,35.47
2016-06-18T09:13:33.575Z,35.31
2016-06-18T09:14:33.578Z,35.18
2016-06-18T09:15:33.581Z,34.85
2016-06-18T09:16:33.600Z,34.69
2016-06-18T09:17:33.604Z,34.35
2016-06-18T09:20:13.753Z,34.04
2016-06-18T09:21:14.850Z,34
2016-06-18T09:22:14.869Z,34.04
2016-06-18T09:23:14.279Z,33.98
2016-06-18T09:24:14.877Z,33.95
2016-06-18T09:25:14.270Z,34.04
2016-06-18T09:26:14.898Z,34.19
2016-06-18T09:27:14.887Z,34.33
2016-06-18T09:28:15.063Z,34.56
2016-06-18T09:29:14.909Z,34.6
2016-06-18T09:31:15.010Z,34.5
2016-06-18T09:32:14.905Z,34.66
2016-06-18T09:33:14.283Z,35.07
2016-06-18T09:34:14.927Z,35.15
2016-06-18T09:35:14.946Z,35.25
2016-06-18T09:36:14.934Z,35.45
2016-06-18T09:37:14.937Z,35.37
2016-06-18T09:38:14.925Z,35.22
2016-06-18T09:39:14.945Z,35.27
2016-06-18T09:40:15.338Z,35.32
2016-06-18T09:41:14.342Z,35.34
2016-06-18T09:42:14.970Z,35.41
2016-06-18T09:43:14.974Z,35.44
2016-06-18T09:44:14.976Z,35.44
2016-06-18T09:45:14.980Z,35.32
2016-06-18T09:46:14.390Z,35.35
2016-06-18T09:47:15.081Z,35.35
2016-06-18T09:48:15.037Z,35.2
2016-06-18T09:49:15.010Z,34.97
2016-06-18T09:50:15.013Z,34.43
2016-06-18T09:51:15.032Z,34.03
2016-06-18T09:52:14.505Z,33.76
2016-06-18T09:53:15.055Z,33.51
2016-06-18T09:54:15.058Z,33.13
2016-06-18T09:55:15.062Z,32.67
2016-06-18T09:56:15.065Z,32.3
2016-06-18T09:57:15.069Z,31.92
2016-06-18T09:58:15.088Z,31.57
2016-06-18T09:59:15.091Z,31.39
2016-06-18T10:00:15.110Z,31.28
2016-06-18T10:01:15.160Z,31.25
2016-06-18T10:02:15.367Z,31.25
2016-06-18T10:03:15.152Z,31.26
2016-06-18T10:04:15.124Z,31.39
2016-06-18T10:05:15.127Z,31.37
2016-06-18T10:06:15.131Z,31.37
2016-06-18T10:07:15.134Z,31.5
2016-06-18T10:08:13.935Z,31.52
2016-06-18T10:09:15.174Z,31.54
2016-06-18T10:10:15.161Z,31.55
2016-06-18T10:11:15.164Z,31.63
2016-06-18T10:12:15.371Z,31.66
2016-06-18T10:13:14.577Z,31.77
2016-06-18T10:14:15.190Z,31.81
2016-06-18T10:15:15.177Z,31.77
2016-06-18T10:16:15.197Z,31.86
2016-06-18T10:17:15.216Z,31.93
2016-06-18T10:18:15.219Z,31.95
2016-06-18T10:19:15.223Z,31.9
2016-06-18T10:20:15.227Z,31.95
2016-06-18T10:21:15.340Z,32.01
2016-06-18T10:22:15.249Z,31.86
2016-06-18T10:23:14.643Z,31.77
2016-06-18T10:24:15.256Z,31.64
2016-06-18T10:25:15.275Z,31.45
2016-06-18T10:26:15.278Z,31.6
2016-06-18T10:27:15.266Z,31.63
2016-06-18T10:28:15.285Z,31.64
2016-06-18T10:29:15.289Z,31.59
2016-06-18T10:30:15.292Z,31.63
2016-06-18T10:31:15.311Z,31.48
2016-06-18T10:32:15.314Z,31.48
2016-06-18T10:33:15.318Z,31.3
2016-06-18T10:34:15.321Z,31.32
2016-06-18T10:35:15.341Z,31.26
2016-06-18T10:36:15.360Z,31.25
2016-06-18T10:37:15.347Z,31.18
2016-06-18T10:38:14.742Z,31.11
2016-06-18T10:39:15.355Z,30.8
2016-06-18T10:40:15.374Z,30.54
2016-06-18T10:41:15.361Z,30.05
2016-06-18T10:42:15.365Z,29.73
2016-06-18T10:43:15.384Z,29.47
2016-06-18T10:44:15.387Z,29.39
2016-06-18T10:45:14.782Z,29.35
2016-06-18T10:46:15.395Z,29.28
2016-06-18T10:47:15.398Z,29.12
2016-06-18T10:48:15.401Z,28.86
2016-06-18T10:49:15.405Z,28.64
2016-06-18T10:50:15.424Z,28.46
2016-06-18T10:51:15.427Z,28.27
2016-06-18T10:52:15.431Z,28.08
2016-06-18T10:53:14.840Z,27.85
2016-06-18T10:54:15.438Z,27.67
2016-06-18T10:55:15.457Z,27.34
2016-06-18T10:56:14.850Z,27.13
2016-06-18T10:57:15.464Z,27.11
2016-06-18T10:58:15.482Z,27.05
2016-06-18T10:59:14.877Z,27.1
2016-06-18T11:00:15.506Z,27.15
2016-06-18T11:01:15.493Z,27.11
2016-06-18T11:02:15.496Z,27.19
2016-06-18T11:03:15.500Z,27.2
2016-06-18T11:04:15.535Z,27.19
2016-06-18T11:05:15.523Z,27.18
2016-06-18T11:06:15.510Z,26.96
2016-06-18T11:07:15.561Z,26.91
2016-06-18T11:08:15.533Z,26.74
2016-06-18T11:09:15.537Z,26.7
2016-06-18T11:10:15.540Z,26.53
2016-06-18T11:11:15.543Z,26.49
2016-06-18T11:12:15.547Z,26.39
2016-06-18T11:13:15.566Z,26.24
2016-06-18T11:14:15.569Z,26.33
2016-06-18T11:15:15.557Z,26.23
2016-06-18T11:16:15.591Z,26.27
2016-06-18T11:17:15.595Z,26.34
2016-06-18T11:18:15.615Z,26.36
2016-06-18T11:19:15.571Z,26.46
2016-06-18T11:20:14.980Z,26.31
2016-06-18T11:21:15.594Z,26.3
2016-06-18T11:22:15.613Z,26.13
2016-06-18T11:23:15.006Z,26.13
2016-06-18T11:24:14.402Z,26.06
2016-06-18T11:25:15.074Z,25.98
2016-06-18T11:26:15.641Z,25.91
2016-06-18T11:27:15.644Z,25.95
2016-06-18T11:28:15.631Z,26.11
2016-06-18T11:29:15.651Z,26.1
2016-06-18T11:30:15.654Z,26.26
2016-06-18T11:31:15.642Z,26.26
2016-06-18T11:32:15.677Z,26.37
2016-06-18T11:33:15.665Z,26.37
2016-06-18T11:34:15.668Z,26.42
2016-06-18T11:41:17.479Z,26.36
2016-06-18T11:42:17.482Z,26.48
2016-06-18T11:43:17.471Z,26.48
2016-06-18T11:44:17.475Z,26.52
2016-06-18T11:45:16.853Z,26.56
2016-06-18T11:46:17.481Z,26.64
2016-06-18T11:47:17.486Z,26.7
2016-06-18T11:48:17.488Z,26.68
2016-06-18T11:49:17.492Z,26.83
2016-06-18T11:50:17.510Z,26.79
2016-06-18T11:51:17.514Z,26.76
2016-06-18T11:52:17.503Z,26.92
2016-06-18T11:53:17.537Z,26.88
2016-06-18T11:54:17.525Z,26.92
2016-06-18T11:55:17.544Z,26.89
2016-06-18T11:56:16.939Z,26.93
2016-06-18T11:57:17.535Z,27.07
2016-06-18T11:58:17.539Z,27.18
2016-06-18T11:59:17.544Z,27.4
2016-06-18T12:00:17.548Z,27.53
2016-06-18T12:01:17.553Z,27.81
2016-06-18T12:02:17.557Z,27.91
2016-06-18T12:03:17.577Z,28.12
2016-06-18T12:04:17.566Z,28.13
2016-06-18T12:05:16.976Z,28.27
2016-06-18T12:06:16.995Z,28.12
2016-06-18T12:07:17.593Z,28.25
2016-06-18T12:08:16.378Z,28.09
2016-06-18T12:09:17.600Z,28.01
2016-06-18T12:10:17.010Z,28.01
2016-06-18T12:11:17.607Z,27.97
2016-06-18T12:12:17.627Z,28.08
2016-06-18T12:13:17.630Z,28.08
2016-06-18T12:14:17.617Z,28.01
2016-06-18T12:15:17.043Z,28.01
2016-06-18T12:16:17.641Z,28.1
2016-06-18T12:17:17.644Z,28.15
2016-06-18T12:18:17.789Z,28.19
2016-06-18T12:19:17.667Z,28.35
2016-06-18T12:20:17.656Z,28.4
2016-06-18T12:21:17.675Z,28.56
2016-06-18T12:22:17.053Z,28.72
2016-06-18T12:23:17.666Z,28.78
2016-06-18T12:24:17.685Z,28.83
2016-06-18T12:25:17.689Z,28.77
2016-06-18T12:26:17.692Z,28.75
2016-06-18T12:27:17.695Z,28.59
2016-06-18T12:28:17.715Z,28.49
2016-06-18T12:29:17.703Z,28.35
2016-06-18T12:30:17.706Z,28.27
2016-06-18T12:31:17.709Z,28.22
2016-06-18T12:32:17.728Z,28.18
2016-06-18T12:33:16.513Z,28.04
2016-06-18T12:34:17.735Z,28.13
2016-06-18T12:35:17.739Z,28.08
2016-06-18T12:36:17.743Z,27.94
2016-06-18T12:37:17.746Z,27.82
2016-06-18T12:38:17.750Z,27.75
2016-06-18T12:39:17.768Z,27.44
2016-06-18T12:40:17.772Z,27.35
2016-06-18T12:41:17.791Z,27.22
2016-06-18T12:42:17.778Z,27.05
2016-06-18T12:43:17.782Z,27.03
2016-06-18T12:44:17.786Z,26.89
2016-06-18T12:45:17.789Z,26.78
2016-06-18T12:46:17.183Z,26.59
2016-06-18T12:47:17.187Z,26.56
2016-06-18T12:48:17.815Z,26.45
2016-06-18T12:49:17.819Z,26.37
2016-06-18T12:50:17.822Z,26.24
2016-06-18T12:51:17.826Z,26.18
2016-06-18T12:52:17.221Z,26.16
2016-06-18T12:53:17.834Z,26.1
2016-06-18T12:54:17.837Z,26.08
2016-06-18T12:55:17.841Z,26.1
2016-06-18T12:56:17.845Z,26.11
2016-06-18T12:57:17.865Z,26.18
2016-06-18T12:58:17.258Z,26.23
2016-06-18T12:59:17.871Z,26.23
2016-06-18T13:00:17.265Z,26.23
2016-06-18T13:01:17.925Z,26.29
2016-06-18T13:02:17.882Z,26.24
2016-06-18T13:03:17.275Z,26.24
2016-06-18T13:04:17.888Z,26.29
2016-06-18T13:05:17.892Z,26.48
2016-06-18T13:06:17.895Z,26.6
2016-06-18T13:07:17.289Z,26.74
2016-06-18T13:08:17.902Z,26.73
2016-06-18T13:09:17.921Z,26.91